createdAt,value
2017-05-15T00:00:10.286Z,1020.44
2017-05-15T00:00:51.187Z,1020.45
2017-05-15T00:01:32.063Z,1020.41
2017-05-15T00:02:12.942Z,1020.43
2017-05-15T00:02:53.839Z,1020.42
2017-05-15T00:03:34.731Z,1020.43
2017-05-15T00:04:15.613Z,1020.41
2017-05-15T00:04:56.525Z,1020.44
2017-05-15T00:05:37.420Z,1020.44
2017-05-15T00:06:18.317Z,1020.45
2017-05-15T00:06:59.217Z,1020.46
2017-05-15T00:07:40.110Z,1020.46
2017-05-15T00:08:21.004Z,1020.48
2017-05-15T00:09:01.893Z,1020.49
2017-05-15T00:09:42.784Z,1020.45
2017-05-15T00:10:23.673Z,1020.46
2017-05-15T00:11:04.578Z,1020.49
2017-05-15T00:11:45.460Z,1020.51
2017-05-15T00:12:27.142Z,1020.47
2017-05-15T00:13:08.043Z,1020.48
2017-05-15T00:13:48.929Z,1020.5
2017-05-15T00:14:29.811Z,1020.47
2017-05-15T00:15:10.704Z,1020.45
2017-05-15T00:15:51.606Z,1020.49
2017-05-15T00:16:32.485Z,1020.49
2017-05-15T00:17:13.378Z,1020.48
2017-05-15T00:17:54.269Z,1020.47
2017-05-15T00:18:35.140Z,1020.48
2017-05-15T00:19:16.013Z,1020.48
2017-05-15T00:19:57.764Z,1020.46
2017-05-15T00:20:38.641Z,1020.47
2017-05-15T00:21:19.532Z,1020.45
2017-05-15T00:22:00.431Z,1020.45
2017-05-15T00:22:41.310Z,1020.5
2017-05-15T00:23:22.255Z,1020.47
2017-05-15T00:24:03.097Z,1020.49
2017-05-15T00:24:43.991Z,1020.49
2017-05-15T00:25:24.869Z,1020.47
2017-05-15T00:26:05.792Z,1020.47
2017-05-15T00:26:46.680Z,1020.45
2017-05-15T00:27:27.571Z,1020.44
2017-05-15T00:28:08.469Z,1020.46
2017-05-15T00:28:49.361Z,1020.42
2017-05-15T00:29:30.258Z,1020.44
2017-05-15T00:30:11.159Z,1020.41
2017-05-15T00:30:52.022Z,1020.41
2017-05-15T00:31:32.929Z,1020.4
2017-05-15T00:32:13.835Z,1020.41
2017-05-15T00:32:54.700Z,1020.44
2017-05-15T00:33:35.604Z,1020.42
2017-05-15T00:34:16.505Z,1020.4
2017-05-15T00:34:57.371Z,1020.38
2017-05-15T00:35:38.302Z,1020.39
2017-05-15T00:36:19.182Z,1020.38
2017-05-15T00:37:00.055Z,1020.38
2017-05-15T00:37:40.939Z,1020.4
2017-05-15T00:38:21.845Z,1020.41
2017-05-15T00:39:02.731Z,1020.35
2017-05-15T00:39:43.596Z,1020.35
2017-05-15T00:40:24.474Z,1020.37
2017-05-15T00:41:05.370Z,1020.36
2017-05-15T00:41:46.252Z,1020.36
2017-05-15T00:42:27.132Z,1020.34
2017-05-15T00:43:08.025Z,1020.39
2017-05-15T00:43:48.907Z,1020.38
2017-05-15T00:44:29.788Z,1020.4
2017-05-15T00:45:10.666Z,1020.39
2017-05-15T00:45:51.555Z,1020.37
2017-05-15T00:46:32.465Z,1020.36
2017-05-15T00:47:13.329Z,1020.37
2017-05-15T00:47:54.220Z,1020.38
2017-05-15T00:48:35.118Z,1020.4
2017-05-15T00:49:16.015Z,1020.42
2017-05-15T00:49:56.880Z,1020.46
2017-05-15T00:50:37.793Z,1020.45
2017-05-15T00:51:18.675Z,1020.46
2017-05-15T00:51:59.566Z,1020.46
2017-05-15T00:52:40.468Z,1020.45
2017-05-15T00:53:21.350Z,1020.48
2017-05-15T00:54:02.240Z,1020.51
2017-05-15T00:54:43.135Z,1020.51
2017-05-15T00:55:24.072Z,1020.45
2017-05-15T00:56:04.899Z,1020.51
2017-05-15T00:56:45.774Z,1020.48
2017-05-15T00:57:26.674Z,1020.54
2017-05-15T00:58:07.560Z,1020.47
2017-05-15T00:58:48.451Z,1020.46
2017-05-15T00:59:29.367Z,1020.52
2017-05-15T01:00:10.252Z,1020.46
2017-05-15T01:00:51.174Z,1020.43
2017-05-15T01:01:32.074Z,1020.44
2017-05-15T01:02:12.945Z,1020.48
2017-05-15T01:02:53.835Z,1020.47
2017-05-15T01:03:34.724Z,1020.48
2017-05-15T01:04:15.610Z,1020.45
2017-05-15T01:04:56.512Z,1020.47
2017-05-15T01:05:37.412Z,1020.48
2017-05-15T01:06:18.331Z,1020.48
2017-05-15T01:06:59.219Z,1020.47
2017-05-15T01:07:40.105Z,1020.52
2017-05-15T01:08:20.986Z,1020.5
2017-05-15T01:09:01.896Z,1020.5
2017-05-15T01:09:42.765Z,1020.53
2017-05-15T01:10:23.640Z,1020.54
2017-05-15T01:11:04.538Z,1020.53
2017-05-15T01:11:45.432Z,1020.52
2017-05-15T01:12:26.322Z,1020.55
2017-05-15T01:13:07.227Z,1020.56
2017-05-15T01:13:48.101Z,1020.58
2017-05-15T01:14:28.993Z,1020.61
2017-05-15T01:15:09.894Z,1020.55
2017-05-15T01:15:50.806Z,1020.55
2017-05-15T01:16:31.667Z,1020.57
2017-05-15T01:17:12.567Z,1020.56
2017-05-15T01:17:53.454Z,1020.6
2017-05-15T01:18:34.334Z,1020.56
2017-05-15T01:19:15.243Z,1020.6
2017-05-15T01:19:56.130Z,1020.59
2017-05-15T01:20:37.011Z,1020.61
2017-05-15T01:21:17.909Z,1020.61
2017-05-15T01:21:58.803Z,1020.62
2017-05-15T01:22:39.700Z,1020.65
2017-05-15T01:23:20.600Z,1020.67
2017-05-15T01:24:01.486Z,1020.64
2017-05-15T01:24:42.380Z,1020.69
2017-05-15T01:25:23.277Z,1020.7
2017-05-15T01:26:04.164Z,1020.74
2017-05-15T01:26:45.057Z,1020.75
2017-05-15T01:27:25.967Z,1020.8
2017-05-15T01:28:07.527Z,1020.77
2017-05-15T01:28:47.796Z,1020.78
2017-05-15T01:29:28.728Z,1020.86
2017-05-15T01:30:09.637Z,1020.82
2017-05-15T01:30:50.548Z,1020.83
2017-05-15T01:31:31.432Z,1020.84
2017-05-15T01:32:12.319Z,1020.89
2017-05-15T01:32:53.204Z,1020.91
2017-05-15T01:33:34.098Z,1020.99
2017-05-15T01:34:14.981Z,1021
2017-05-15T01:34:55.860Z,1020.99
2017-05-15T01:35:36.756Z,1021.05
2017-05-15T01:36:17.642Z,1021.09
2017-05-15T01:36:58.524Z,1021.06
2017-05-15T01:37:39.414Z,1021.06
2017-05-15T01:38:20.313Z,1021.07
2017-05-15T01:39:01.194Z,1021.13
2017-05-15T01:39:42.078Z,1021.13
2017-05-15T01:40:22.956Z,1021.11
2017-05-15T01:41:03.839Z,1021.09
2017-05-15T01:41:44.731Z,1021.1
2017-05-15T01:42:25.632Z,1021.08
2017-05-15T01:43:06.530Z,1021.05
2017-05-15T01:43:47.410Z,1021.06
2017-05-15T01:45:25.831Z,1021.04
2017-05-15T01:46:06.722Z,1021.05
2017-05-15T01:46:47.620Z,1021.04
2017-05-15T01:47:28.509Z,1021.07
2017-05-15T01:48:09.408Z,1021
2017-05-15T01:48:50.294Z,1021.01
2017-05-15T01:49:31.213Z,1021.02
2017-05-15T01:50:12.069Z,1021
2017-05-15T01:50:52.963Z,1021.02
2017-05-15T01:51:33.846Z,1021.01
2017-05-15T01:52:14.755Z,1021
2017-05-15T01:52:55.640Z,1021.01
2017-05-15T01:53:36.513Z,1021.01
2017-05-15T01:54:17.399Z,1021.03
2017-05-15T01:54:58.295Z,1021.08
2017-05-15T01:55:39.189Z,1021.09
2017-05-15T01:56:20.075Z,1021.09
2017-05-15T01:57:00.979Z,1021.08
2017-05-15T01:57:41.859Z,1021.1
2017-05-15T01:58:22.734Z,1021.09
2017-05-15T01:59:03.616Z,1021.09
2017-05-15T01:59:44.509Z,1021.07
2017-05-15T02:00:25.390Z,1021.08
2017-05-15T02:01:06.303Z,1021.02
2017-05-15T02:01:47.167Z,1021.05
2017-05-15T02:02:28.057Z,1021.04
2017-05-15T02:03:08.944Z,1021
2017-05-15T02:03:49.849Z,1021.01
2017-05-15T02:04:30.745Z,1021.02
2017-05-15T02:05:11.619Z,1021.06
2017-05-15T02:05:52.518Z,1021.04
2017-05-15T02:06:33.410Z,1021
2017-05-15T02:07:14.304Z,1021.03
2017-05-15T02:07:55.195Z,1021.04
2017-05-15T02:08:36.091Z,1021.03
2017-05-15T02:09:16.980Z,1021.02
2017-05-15T02:09:57.872Z,1021.08
2017-05-15T02:10:38.757Z,1021.08
2017-05-15T02:11:19.645Z,1021.07
2017-05-15T02:12:00.552Z,1021.09
2017-05-15T02:12:41.446Z,1021.09
2017-05-15T02:13:22.333Z,1021.08
2017-05-15T02:14:03.226Z,1021.1
2017-05-15T02:14:44.108Z,1021.1
2017-05-15T02:15:24.990Z,1021.07
2017-05-15T02:16:05.886Z,1021.07
2017-05-15T02:16:46.791Z,1021.1
2017-05-15T02:17:27.691Z,1021.1
2017-05-15T02:18:08.589Z,1021.1
2017-05-15T02:18:49.478Z,1021.11
2017-05-15T02:19:30.363Z,1021.11
2017-05-15T02:20:11.247Z,1021.1
2017-05-15T02:20:52.135Z,1021.15
2017-05-15T02:21:33.022Z,1021.11
2017-05-15T02:22:13.911Z,1021.12
2017-05-15T02:22:54.819Z,1021.11
2017-05-15T02:23:35.709Z,1021.13
2017-05-15T02:24:16.607Z,1021.14
2017-05-15T02:24:57.495Z,1021.14
2017-05-15T02:25:38.384Z,1021.12
2017-05-15T02:26:19.283Z,1021.09
2017-05-15T02:27:00.179Z,1021.14
2017-05-15T02:27:41.069Z,1021.06
2017-05-15T02:28:23.193Z,1021.09
2017-05-15T02:29:04.080Z,1021.08
2017-05-15T02:29:44.965Z,1021.07
2017-05-15T02:30:25.868Z,1021.06
2017-05-15T02:31:06.760Z,1021.03
2017-05-15T02:31:49.233Z,1021.02
2017-05-15T02:33:42.823Z,1021.02
2017-05-15T02:34:23.708Z,1021.04
2017-05-15T02:35:04.605Z,1021.02
2017-05-15T02:35:45.494Z,1021.07
2017-05-15T02:36:26.389Z,1021.01
2017-05-15T02:37:07.282Z,1021.06
2017-05-15T02:37:48.170Z,1021.04
2017-05-15T02:38:29.069Z,1021.07
2017-05-15T02:39:09.960Z,1021.03
2017-05-15T02:39:50.859Z,1021.04
2017-05-15T02:40:31.743Z,1021.05
2017-05-15T02:41:12.636Z,1021.06
2017-05-15T02:41:53.540Z,1021.06
2017-05-15T02:42:34.430Z,1021.05
2017-05-15T02:43:15.328Z,1021.08
2017-05-15T02:43:56.213Z,1021.11
2017-05-15T02:44:37.109Z,1021.09
2017-05-15T02:45:18.005Z,1021.12
2017-05-15T02:45:58.888Z,1021.1
2017-05-15T02:46:39.779Z,1021.09
2017-05-15T02:47:21.455Z,1021.15
2017-05-15T02:48:02.875Z,1021.13
2017-05-15T02:48:43.776Z,1021.14
2017-05-15T02:49:24.666Z,1021.15
2017-05-15T02:50:05.559Z,1021.15
2017-05-15T02:50:46.453Z,1021.15
2017-05-15T02:51:27.374Z,1021.18
2017-05-15T02:52:08.277Z,1021.15
2017-05-15T02:54:28.214Z,1021.17
2017-05-15T02:55:09.099Z,1021.18
2017-05-15T02:55:49.985Z,1021.15
2017-05-15T02:56:30.877Z,1021.17
2017-05-15T02:57:11.756Z,1021.2
2017-05-15T02:57:52.649Z,1021.17
2017-05-15T02:58:33.542Z,1021.19
2017-05-15T02:59:14.434Z,1021.21
2017-05-15T02:59:55.326Z,1021.2
2017-05-15T03:00:36.230Z,1021.18
2017-05-15T03:01:17.115Z,1021.18
2017-05-15T03:01:58.008Z,1021.21
2017-05-15T03:02:38.906Z,1021.18
2017-05-15T03:03:19.794Z,1021.21
2017-05-15T03:04:00.693Z,1021.2
2017-05-15T03:04:41.589Z,1021.17
2017-05-15T03:05:22.482Z,1021.2
2017-05-15T03:06:03.376Z,1021.16
2017-05-15T03:06:44.299Z,1021.19
2017-05-15T03:07:25.191Z,1021.18
2017-05-15T03:08:06.073Z,1021.21
2017-05-15T03:08:46.960Z,1021.19
2017-05-15T03:09:27.882Z,1021.2
2017-05-15T03:10:08.885Z,1021.19
2017-05-15T03:10:49.823Z,1021.22
2017-05-15T03:11:30.782Z,1021.22
2017-05-15T03:12:11.683Z,1021.22
2017-05-15T03:12:52.622Z,1021.2
2017-05-15T03:13:33.555Z,1021.19
2017-05-15T03:14:14.520Z,1021.22
2017-05-15T03:14:55.436Z,1021.2
2017-05-15T03:15:36.335Z,1021.19
2017-05-15T03:16:17.213Z,1021.23
2017-05-15T03:16:58.095Z,1021.21
2017-05-15T03:17:38.978Z,1021.2
2017-05-15T03:18:19.868Z,1021.2
2017-05-15T03:19:00.775Z,1021.17
2017-05-15T03:19:41.685Z,1021.2
2017-05-15T03:20:22.569Z,1021.18
2017-05-15T03:21:03.462Z,1021.17
2017-05-15T03:21:44.337Z,1021.17
2017-05-15T03:22:25.292Z,1021.19
2017-05-15T03:23:06.161Z,1021.16
2017-05-15T03:23:47.073Z,1021.15
2017-05-15T03:25:56.121Z,1021.22
2017-05-15T03:26:37.012Z,1021.22
2017-05-15T03:27:17.904Z,1021.21
2017-05-15T03:27:58.793Z,1021.24
2017-05-15T03:28:39.694Z,1021.22
2017-05-15T03:29:20.604Z,1021.21
2017-05-15T03:30:01.489Z,1021.21
2017-05-15T03:30:42.380Z,1021.22
2017-05-15T03:31:23.275Z,1021.23
2017-05-15T03:32:04.158Z,1021.24
2017-05-15T03:32:45.053Z,1021.28
2017-05-15T03:33:25.977Z,1021.24
2017-05-15T03:34:06.862Z,1021.25
2017-05-15T03:34:47.751Z,1021.25
2017-05-15T03:35:28.643Z,1021.22
2017-05-15T03:36:09.530Z,1021.24
2017-05-15T03:36:50.426Z,1021.2
2017-05-15T03:37:31.316Z,1021.24
2017-05-15T03:38:12.208Z,1021.26
2017-05-15T03:38:53.096Z,1021.22
2017-05-15T03:39:33.991Z,1021.24
2017-05-15T03:40:14.872Z,1021.24
2017-05-15T03:40:55.758Z,1021.23
2017-05-15T03:41:36.653Z,1021.26
2017-05-15T03:42:17.545Z,1021.29
2017-05-15T03:42:58.433Z,1021.28
2017-05-15T03:43:39.380Z,1021.32
2017-05-15T03:44:20.226Z,1021.36
2017-05-15T03:45:01.120Z,1021.35
2017-05-15T03:45:42.070Z,1021.37
2017-05-15T03:46:22.965Z,1021.36
2017-05-15T03:47:03.864Z,1021.37
2017-05-15T03:47:44.766Z,1021.35
2017-05-15T03:48:25.675Z,1021.37
2017-05-15T03:49:06.571Z,1021.35
2017-05-15T03:49:47.476Z,1021.34
2017-05-15T03:50:28.369Z,1021.35
2017-05-15T03:51:09.259Z,1021.33
2017-05-15T03:51:50.161Z,1021.32
2017-05-15T03:52:31.054Z,1021.33
2017-05-15T03:53:11.953Z,1021.39
2017-05-15T03:53:52.842Z,1021.36
2017-05-15T03:54:33.767Z,1021.35
2017-05-15T03:55:14.668Z,1021.34
2017-05-15T03:55:55.567Z,1021.34
2017-05-15T03:56:36.470Z,1021.33
2017-05-15T03:57:17.357Z,1021.34
2017-05-15T03:57:58.268Z,1021.37
2017-05-15T03:58:39.129Z,1021.34
2017-05-15T03:59:20.035Z,1021.39
2017-05-15T04:00:00.913Z,1021.38
2017-05-15T04:00:41.807Z,1021.34
2017-05-15T04:01:22.681Z,1021.36
2017-05-15T04:02:03.567Z,1021.37
2017-05-15T04:02:44.475Z,1021.36
2017-05-15T04:03:25.368Z,1021.35
2017-05-15T04:04:06.271Z,1021.36
2017-05-15T04:04:47.152Z,1021.36
2017-05-15T04:05:28.047Z,1021.37
2017-05-15T04:06:08.953Z,1021.38
2017-05-15T04:06:49.870Z,1021.41
2017-05-15T04:07:30.757Z,1021.38
2017-05-15T04:08:11.667Z,1021.4
2017-05-15T04:08:52.583Z,1021.42
2017-05-15T04:09:33.470Z,1021.45
2017-05-15T04:10:14.358Z,1021.41
2017-05-15T04:10:55.250Z,1021.45
2017-05-15T04:11:36.124Z,1021.43
2017-05-15T04:12:17.020Z,1021.42
2017-05-15T04:12:57.922Z,1021.42
2017-05-15T04:13:38.819Z,1021.43
2017-05-15T04:14:19.711Z,1021.46
2017-05-15T04:15:00.590Z,1021.49
2017-05-15T04:15:41.468Z,1021.48
2017-05-15T04:16:22.361Z,1021.55
2017-05-15T04:17:03.245Z,1021.55
2017-05-15T04:17:44.141Z,1021.53
2017-05-15T04:18:25.037Z,1021.57
2017-05-15T04:19:05.920Z,1021.58
2017-05-15T04:19:46.808Z,1021.59
2017-05-15T04:20:27.693Z,1021.57
2017-05-15T04:21:08.584Z,1021.6
2017-05-15T04:21:49.479Z,1021.65
2017-05-15T04:22:30.364Z,1021.65
2017-05-15T04:23:11.255Z,1021.67
2017-05-15T04:23:52.164Z,1021.67
2017-05-15T04:24:33.063Z,1021.67
2017-05-15T04:25:13.945Z,1021.68
2017-05-15T04:25:54.863Z,1021.73
2017-05-15T04:26:35.753Z,1021.75
2017-05-15T04:27:16.674Z,1021.74
2017-05-15T04:27:57.532Z,1021.75
2017-05-15T04:28:38.431Z,1021.8
2017-05-15T04:29:19.336Z,1021.81
2017-05-15T04:30:00.231Z,1021.77
2017-05-15T04:30:41.126Z,1021.78
2017-05-15T04:31:22.034Z,1021.78
2017-05-15T04:32:02.925Z,1021.8
2017-05-15T04:32:43.819Z,1021.81
2017-05-15T04:33:24.715Z,1021.85
2017-05-15T04:34:05.601Z,1021.85
2017-05-15T04:34:46.495Z,1021.91
2017-05-15T04:35:27.383Z,1021.9
2017-05-15T04:36:08.290Z,1021.95
2017-05-15T04:36:49.183Z,1021.93
2017-05-15T04:37:30.089Z,1021.94
2017-05-15T04:38:10.981Z,1021.94
2017-05-15T04:38:51.875Z,1021.93
2017-05-15T04:39:32.772Z,1021.93
2017-05-15T04:40:13.676Z,1021.94
2017-05-15T04:40:54.568Z,1021.94
2017-05-15T04:41:35.462Z,1021.96
2017-05-15T04:42:16.352Z,1021.93
2017-05-15T04:42:57.246Z,1021.89
2017-05-15T04:43:38.137Z,1021.92
2017-05-15T04:44:19.025Z,1021.92
2017-05-15T04:44:59.922Z,1021.9
2017-05-15T04:45:40.815Z,1021.9
2017-05-15T04:46:21.708Z,1021.91
2017-05-15T04:47:02.605Z,1021.9
2017-05-15T04:47:43.486Z,1021.9
2017-05-15T04:48:24.376Z,1021.91
2017-05-15T04:49:05.274Z,1021.85
2017-05-15T04:49:46.167Z,1021.91
2017-05-15T04:50:27.054Z,1021.94
2017-05-15T04:51:07.946Z,1021.92
2017-05-15T04:51:48.839Z,1021.94
2017-05-15T04:52:29.727Z,1021.92
2017-05-15T04:53:10.608Z,1021.92
2017-05-15T04:53:51.492Z,1021.93
2017-05-15T04:54:32.377Z,1021.95
2017-05-15T04:55:13.309Z,1021.96
2017-05-15T04:55:54.198Z,1021.96
2017-05-15T04:56:35.103Z,1021.94
2017-05-15T04:57:15.997Z,1021.94
2017-05-15T04:57:56.907Z,1021.95
2017-05-15T04:58:37.803Z,1021.96
2017-05-15T04:59:18.800Z,1021.97
2017-05-15T04:59:59.669Z,1022
2017-05-15T05:00:40.539Z,1022.02
2017-05-15T05:01:21.437Z,1021.99
2017-05-15T05:02:02.317Z,1022.03
2017-05-15T05:02:43.207Z,1022.01
2017-05-15T05:03:24.114Z,1022.03
2017-05-15T05:04:04.998Z,1022.03
2017-05-15T05:04:45.878Z,1022.04
2017-05-15T05:05:26.768Z,1022.02
2017-05-15T05:06:07.706Z,1022.03
2017-05-15T05:06:48.607Z,1022.03
2017-05-15T05:07:29.529Z,1022.01
2017-05-15T05:08:10.425Z,1022.04
2017-05-15T05:08:51.312Z,1022.03
2017-05-15T05:09:32.218Z,1022.1
2017-05-15T05:10:13.131Z,1022.09
2017-05-15T05:10:54.018Z,1022.12
2017-05-15T05:11:34.905Z,1022.14
2017-05-15T05:12:15.805Z,1022.17
2017-05-15T05:12:56.693Z,1022.16
2017-05-15T05:13:37.574Z,1022.14
2017-05-15T05:14:18.462Z,1022.14
2017-05-15T05:14:59.366Z,1022.14
2017-05-15T05:15:40.257Z,1022.17
2017-05-15T05:16:21.136Z,1022.18
2017-05-15T05:17:02.035Z,1022.15
2017-05-15T05:17:42.909Z,1022.15
2017-05-15T05:18:23.794Z,1022.18
2017-05-15T05:19:04.686Z,1022.19
2017-05-15T05:19:45.580Z,1022.19
2017-05-15T05:20:26.510Z,1022.23
2017-05-15T05:21:07.396Z,1022.23
2017-05-15T05:23:06.258Z,1022.28
2017-05-15T05:23:47.156Z,1022.29
2017-05-15T05:24:28.052Z,1022.32
2017-05-15T05:25:08.923Z,1022.28
2017-05-15T05:27:38.562Z,1022.36
2017-05-15T05:28:19.453Z,1022.35
2017-05-15T05:29:00.359Z,1022.35
2017-05-15T05:29:41.268Z,1022.33
2017-05-15T05:30:22.177Z,1022.32
2017-05-15T05:31:03.057Z,1022.3
2017-05-15T05:31:43.959Z,1022.32
2017-05-15T05:32:24.834Z,1022.29
2017-05-15T05:33:05.726Z,1022.33
2017-05-15T05:33:46.622Z,1022.34
2017-05-15T05:34:27.506Z,1022.35
2017-05-15T05:36:26.342Z,1022.32
2017-05-15T05:37:07.279Z,1022.33
2017-05-15T05:37:48.133Z,1022.31
2017-05-15T05:38:29.039Z,1022.32
2017-05-15T05:40:27.802Z,1022.35
2017-05-15T05:41:08.700Z,1022.37
2017-05-15T05:41:49.598Z,1022.39
2017-05-15T05:42:30.487Z,1022.36
2017-05-15T05:43:11.375Z,1022.4
2017-05-15T05:43:52.271Z,1022.4
2017-05-15T05:44:33.152Z,1022.35
2017-05-15T05:45:14.037Z,1022.38
2017-05-15T05:45:54.932Z,1022.4
2017-05-15T05:46:35.814Z,1022.42
2017-05-15T05:47:16.701Z,1022.43
2017-05-15T05:49:16.511Z,1022.46
2017-05-15T05:49:57.398Z,1022.43
2017-05-15T05:50:38.298Z,1022.48
2017-05-15T05:51:19.198Z,1022.45
2017-05-15T05:52:00.074Z,1022.42
2017-05-15T05:52:40.965Z,1022.46
2017-05-15T05:53:21.853Z,1022.49
2017-05-15T05:54:02.758Z,1022.45
2017-05-15T05:54:43.657Z,1022.53
2017-05-15T05:55:24.550Z,1022.46
2017-05-15T05:56:05.431Z,1022.5
2017-05-15T05:56:46.334Z,1022.52
2017-05-15T05:57:27.231Z,1022.51
2017-05-15T05:58:08.125Z,1022.55
2017-05-15T05:58:49.005Z,1022.54
2017-05-15T05:59:29.895Z,1022.55
2017-05-15T06:00:10.790Z,1022.6
2017-05-15T06:00:51.685Z,1022.56
2017-05-15T06:01:32.585Z,1022.61
2017-05-15T06:02:13.473Z,1022.6
2017-05-15T06:02:54.376Z,1022.59
2017-05-15T06:03:35.265Z,1022.61
2017-05-15T06:04:16.191Z,1022.59
2017-05-15T06:04:57.127Z,1022.62
2017-05-15T06:05:38.023Z,1022.61
2017-05-15T06:06:18.920Z,1022.62
2017-05-15T06:06:59.811Z,1022.63
2017-05-15T06:07:40.696Z,1022.63
2017-05-15T06:08:21.597Z,1022.64
2017-05-15T06:09:02.503Z,1022.65
2017-05-15T06:09:43.392Z,1022.64
2017-05-15T06:10:24.276Z,1022.65
2017-05-15T06:11:05.161Z,1022.63
2017-05-15T06:11:46.051Z,1022.67
2017-05-15T06:12:26.941Z,1022.66
2017-05-15T06:13:07.818Z,1022.67
2017-05-15T06:13:48.720Z,1022.63
2017-05-15T06:14:29.604Z,1022.61
2017-05-15T06:15:10.524Z,1022.68
2017-05-15T06:15:51.422Z,1022.68
2017-05-15T06:16:32.303Z,1022.7
2017-05-15T06:17:13.233Z,1022.69
2017-05-15T06:17:54.204Z,1022.71
2017-05-15T06:18:35.078Z,1022.69
2017-05-15T06:19:16.011Z,1022.72
2017-05-15T06:19:56.872Z,1022.7
2017-05-15T06:20:37.757Z,1022.71
2017-05-15T06:21:18.645Z,1022.72
2017-05-15T06:21:59.565Z,1022.76
2017-05-15T06:22:40.416Z,1022.76
2017-05-15T06:23:21.316Z,1022.81
2017-05-15T06:24:02.205Z,1022.83
2017-05-15T06:24:43.135Z,1022.77
2017-05-15T06:25:24.027Z,1022.76
2017-05-15T06:26:04.910Z,1022.82
2017-05-15T06:26:45.797Z,1022.84
2017-05-15T06:27:26.699Z,1022.81
2017-05-15T06:28:07.586Z,1022.83
2017-05-15T06:28:48.488Z,1022.79
2017-05-15T06:29:29.398Z,1022.75
2017-05-15T06:30:10.294Z,1022.78
2017-05-15T06:30:51.201Z,1022.78
2017-05-15T06:31:32.105Z,1022.8
2017-05-15T06:32:13.011Z,1022.8
2017-05-15T06:32:53.898Z,1022.82
2017-05-15T06:33:34.786Z,1022.81
2017-05-15T06:34:15.689Z,1022.85
2017-05-15T06:34:56.576Z,1022.87
2017-05-15T06:35:37.474Z,1022.87
2017-05-15T06:36:18.379Z,1022.8
2017-05-15T06:36:59.258Z,1022.86
2017-05-15T06:37:40.161Z,1022.87
2017-05-15T06:38:21.061Z,1022.83
2017-05-15T06:39:01.944Z,1022.87
2017-05-15T06:39:42.856Z,1022.9
2017-05-15T06:40:23.751Z,1022.93
2017-05-15T06:41:04.653Z,1022.91
2017-05-15T06:41:45.554Z,1022.9
2017-05-15T06:42:26.444Z,1022.92
2017-05-15T06:43:07.355Z,1022.94
2017-05-15T06:43:48.252Z,1022.95
2017-05-15T06:44:29.162Z,1022.95
2017-05-15T06:45:10.052Z,1022.92
2017-05-15T06:45:50.959Z,1022.9
2017-05-15T06:46:31.907Z,1022.93
2017-05-15T06:47:12.805Z,1022.95
2017-05-15T06:47:53.736Z,1022.95
2017-05-15T06:48:34.642Z,1022.98
2017-05-15T06:49:15.539Z,1022.96
2017-05-15T06:49:56.446Z,1022.92
2017-05-15T06:50:37.340Z,1022.94
2017-05-15T06:51:18.255Z,1022.93
2017-05-15T06:51:59.155Z,1022.95
2017-05-15T06:52:40.055Z,1022.98
2017-05-15T06:53:20.955Z,1022.99
2017-05-15T06:54:01.863Z,1022.99
2017-05-15T06:54:42.764Z,1022.98
2017-05-15T06:55:23.659Z,1023.02
2017-05-15T06:56:04.560Z,1023
2017-05-15T06:56:45.461Z,1022.99
2017-05-15T06:57:26.354Z,1022.95
2017-05-15T06:58:07.287Z,1022.96
2017-05-15T06:58:48.157Z,1023
2017-05-15T06:59:29.061Z,1022.96
2017-05-15T07:00:10.438Z,1023
2017-05-15T07:00:51.431Z,1023
2017-05-15T07:01:32.330Z,1023.02
2017-05-15T07:02:13.229Z,1022.99
2017-05-15T07:02:54.140Z,1023.05
2017-05-15T07:03:35.045Z,1023.01
2017-05-15T07:04:15.957Z,1023.04
2017-05-15T07:04:56.864Z,1023.03
2017-05-15T07:05:37.771Z,1023.1
2017-05-15T07:06:18.678Z,1023.07
2017-05-15T07:06:59.591Z,1023.07
2017-05-15T07:07:40.486Z,1023.11
2017-05-15T07:08:21.391Z,1023.17
2017-05-15T07:09:02.296Z,1023.12
2017-05-15T07:09:43.191Z,1023.19
2017-05-15T07:10:24.091Z,1023.22
2017-05-15T07:11:04.998Z,1023.2
2017-05-15T07:11:45.903Z,1023.22
2017-05-15T07:12:26.809Z,1023.25
2017-05-15T07:13:07.720Z,1023.21
2017-05-15T07:13:48.617Z,1023.19
2017-05-15T07:14:29.521Z,1023.22
2017-05-15T07:15:10.426Z,1023.25
2017-05-15T07:15:51.322Z,1023.2
2017-05-15T07:16:32.228Z,1023.2
2017-05-15T07:17:13.130Z,1023.2
2017-05-15T07:17:54.041Z,1023.16
2017-05-15T07:18:34.930Z,1023.23
2017-05-15T07:19:15.825Z,1023.22
2017-05-15T07:19:56.726Z,1023.2
2017-05-15T07:20:37.621Z,1023.21
2017-05-15T07:21:18.526Z,1023.17
2017-05-15T07:21:59.436Z,1023.18
2017-05-15T07:22:40.346Z,1023.23
2017-05-15T07:23:21.258Z,1023.19
2017-05-15T07:24:02.159Z,1023.17
2017-05-15T07:24:43.059Z,1023.18
2017-05-15T07:25:23.961Z,1023.2
2017-05-15T07:26:04.871Z,1023.24
2017-05-15T07:26:45.768Z,1023.24
2017-05-15T07:27:26.677Z,1023.25
2017-05-15T07:28:07.617Z,1023.23
2017-05-15T07:28:48.510Z,1023.27
2017-05-15T07:29:29.415Z,1023.28
2017-05-15T07:30:10.327Z,1023.35
2017-05-15T07:30:51.230Z,1023.32
2017-05-15T07:31:32.140Z,1023.32
2017-05-15T07:33:31.933Z,1023.34
2017-05-15T07:34:12.840Z,1023.31
2017-05-15T07:34:53.757Z,1023.35
2017-05-15T07:35:34.663Z,1023.33
2017-05-15T07:36:15.563Z,1023.34
2017-05-15T07:36:56.470Z,1023.37
2017-05-15T07:37:37.376Z,1023.39
2017-05-15T07:38:18.282Z,1023.37
2017-05-15T07:38:59.187Z,1023.42
2017-05-15T07:39:40.093Z,1023.44
2017-05-15T07:40:21.000Z,1023.44
2017-05-15T07:41:01.901Z,1023.44
2017-05-15T07:41:42.803Z,1023.5
2017-05-15T07:42:23.711Z,1023.51
2017-05-15T07:43:04.617Z,1023.49
2017-05-15T07:43:45.529Z,1023.51
2017-05-15T07:44:26.436Z,1023.52
2017-05-15T07:45:07.345Z,1023.53
2017-05-15T07:45:48.247Z,1023.53
2017-05-15T07:46:29.167Z,1023.6
2017-05-15T07:47:10.071Z,1023.58
2017-05-15T07:47:50.975Z,1023.57
2017-05-15T07:48:31.877Z,1023.55
2017-05-15T07:49:12.774Z,1023.59
2017-05-15T07:49:53.675Z,1023.61
2017-05-15T07:50:34.576Z,1023.62
2017-05-15T07:51:15.483Z,1023.6
2017-05-15T07:51:56.387Z,1023.57
2017-05-15T07:52:37.295Z,1023.66
2017-05-15T07:53:18.192Z,1023.64
2017-05-15T07:53:59.097Z,1023.65
2017-05-15T07:54:40.044Z,1023.65
2017-05-15T07:55:20.960Z,1023.64
2017-05-15T07:56:01.867Z,1023.65
2017-05-15T07:56:42.776Z,1023.65
2017-05-15T07:57:23.697Z,1023.64
2017-05-15T07:58:04.608Z,1023.66
2017-05-15T07:58:45.525Z,1023.63
2017-05-15T07:59:26.431Z,1023.65
2017-05-15T08:00:07.343Z,1023.64
2017-05-15T08:00:48.249Z,1023.68
2017-05-15T08:01:29.161Z,1023.62
2017-05-15T08:02:10.086Z,1023.61
2017-05-15T08:02:50.993Z,1023.64
2017-05-15T08:03:31.886Z,1023.68
2017-05-15T08:04:12.784Z,1023.56
2017-05-15T08:04:53.683Z,1023.6
2017-05-15T08:05:34.587Z,1023.59
2017-05-15T08:06:15.497Z,1023.65
2017-05-15T08:06:56.405Z,1023.63
2017-05-15T08:07:37.312Z,1023.62
2017-05-15T08:08:18.211Z,1023.61
2017-05-15T08:08:59.117Z,1023.63
2017-05-15T08:09:40.016Z,1023.62
2017-05-15T08:10:20.929Z,1023.67
2017-05-15T08:11:01.834Z,1023.67
2017-05-15T08:11:42.747Z,1023.68
2017-05-15T08:12:23.654Z,1023.67
2017-05-15T08:13:04.563Z,1023.72
2017-05-15T08:13:45.450Z,1023.75
2017-05-15T08:14:26.359Z,1023.82
2017-05-15T08:15:07.288Z,1023.78
2017-05-15T08:15:48.216Z,1023.75
2017-05-15T08:16:29.131Z,1023.75
2017-05-15T08:17:10.055Z,1023.8
2017-05-15T08:17:50.992Z,1023.8
2017-05-15T08:18:31.889Z,1023.79
2017-05-15T08:19:12.812Z,1023.83
2017-05-15T08:19:53.725Z,1023.8
2017-05-15T08:20:34.627Z,1023.83
2017-05-15T08:21:15.528Z,1023.82
2017-05-15T08:21:56.435Z,1023.84
2017-05-15T08:22:37.334Z,1023.85
2017-05-15T08:23:18.915Z,1023.85
2017-05-15T08:23:59.824Z,1023.83
2017-05-15T08:24:40.738Z,1023.86
2017-05-15T08:25:21.649Z,1023.92
2017-05-15T08:26:02.548Z,1023.91
2017-05-15T08:26:43.484Z,1023.88
2017-05-15T08:27:24.361Z,1023.96
2017-05-15T08:28:05.267Z,1023.88
2017-05-15T08:28:46.173Z,1023.88
2017-05-15T08:29:27.074Z,1023.93
2017-05-15T08:30:07.995Z,1023.96